createdAt,value
2022-11-10T00:01:23.128Z,3.00
2022-11-10T00:06:24.594Z,2.65
2022-11-10T00:11:26.035Z,3.63
2022-11-10T00:16:46.127Z,3.50
2022-11-10T00:21:47.674Z,3.20
2022-11-10T00:26:49.920Z,3.58
2022-11-10T00:31:51.369Z,3.10
2022-11-10T00:36:52.885Z,4.13
2022-11-10T00:41:54.476Z,3.05
2022-11-10T00:46:55.949Z,3.10
2022-11-10T00:51:57.713Z,3.45
2022-11-10T00:56:59.248Z,2.47
2022-11-10T01:02:00.707Z,3.55
2022-11-10T01:07:02.214Z,3.60
2022-11-10T01:12:03.907Z,3.00
2022-11-10T01:17:05.446Z,3.13
2022-11-10T01:22:06.915Z,3.60
2022-11-10T01:27:08.447Z,3.65
2022-11-10T01:32:09.909Z,3.72
2022-11-10T01:37:14.440Z,3.05
2022-11-10T01:42:22.173Z,3.28
2022-11-10T01:47:23.608Z,3.25
2022-11-10T01:52:25.058Z,3.05
2022-11-10T01:57:26.570Z,3.38
2022-11-10T02:02:37.891Z,3.30
2022-11-10T02:07:40.134Z,2.38
2022-11-10T02:12:41.911Z,3.67
2022-11-10T02:17:45.712Z,4.03
2022-11-10T02:22:47.312Z,3.10
2022-11-10T02:27:48.857Z,3.17
2022-11-10T02:32:50.371Z,3.83
2022-11-10T02:37:51.815Z,3.20
2022-11-10T02:42:53.309Z,3.08
2022-11-10T02:47:54.781Z,4.18
2022-11-10T02:52:56.308Z,3.13
2022-11-10T02:57:58.239Z,2.80
2022-11-10T03:03:03.772Z,3.10
2022-11-10T03:08:05.865Z,3.67
2022-11-10T03:13:07.426Z,3.75
2022-11-10T03:18:08.937Z,3.35
2022-11-10T03:23:10.437Z,3.20
2022-11-10T03:28:12.089Z,3.40
2022-11-10T03:33:13.559Z,2.85
2022-11-10T03:38:15.091Z,2.50
2022-11-10T03:43:16.563Z,3.40
2022-11-10T03:48:18.026Z,3.33
2022-11-10T03:53:19.768Z,3.40
2022-11-10T03:58:21.540Z,3.17
2022-11-10T04:03:23.927Z,2.80
2022-11-10T04:08:44.334Z,2.55
2022-11-10T04:14:04.105Z,3.05
2022-11-10T04:19:05.673Z,2.43
2022-11-10T04:24:07.822Z,3.35
2022-11-10T04:29:11.138Z,2.70
2022-11-10T04:34:14.756Z,2.78
2022-11-10T04:39:16.264Z,2.83
2022-11-10T04:44:17.761Z,3.03
2022-11-10T04:49:20.335Z,3.67
2022-11-10T04:54:21.845Z,3.33
2022-11-10T04:59:23.328Z,3.47
2022-11-10T05:04:24.828Z,3.42
2022-11-10T05:09:26.343Z,3.78
2022-11-10T05:14:27.855Z,3.40
2022-11-10T05:19:29.307Z,4.15
2022-11-10T05:24:30.813Z,2.95
2022-11-10T05:29:32.472Z,3.67
2022-11-10T05:34:34.101Z,4.05
2022-11-10T05:39:35.553Z,3.55
2022-11-10T05:44:36.990Z,4.18
2022-11-10T05:49:38.467Z,4.07
2022-11-10T05:54:39.945Z,3.17
2022-11-10T05:59:41.366Z,4.15
2022-11-10T06:04:42.926Z,3.90
2022-11-10T06:09:45.604Z,3.90
2022-11-10T06:14:47.368Z,4.50
2022-11-10T06:19:48.894Z,4.30
2022-11-10T06:24:50.382Z,4.78
2022-11-10T06:29:51.866Z,5.03
2022-11-10T06:34:57.850Z,3.97
2022-11-10T06:40:01.706Z,3.63
2022-11-10T06:45:03.750Z,4.10
2022-11-10T06:50:05.580Z,3.58
2022-11-10T06:55:07.646Z,4.13
2022-11-10T07:00:10.458Z,3.83
2022-11-10T07:05:12.302Z,2.97
2022-11-10T07:10:14.822Z,4.22
2022-11-10T07:15:16.245Z,3.90
2022-11-10T07:20:17.755Z,3.90
2022-11-10T07:25:19.234Z,4.85
2022-11-10T07:30:20.687Z,4.65
2022-11-10T07:35:22.187Z,9.77
2022-11-10T07:40:24.187Z,7.13
2022-11-10T07:45:26.147Z,6.10
2022-11-10T07:50:28.420Z,4.75
2022-11-10T07:55:29.915Z,5.07
2022-11-10T08:00:31.980Z,4.30
2022-11-10T08:05:34.739Z,4.78
2022-11-10T08:10:36.935Z,4.00
2022-11-10T08:15:39.181Z,3.85
2022-11-10T08:20:40.706Z,3.97
2022-11-10T08:25:42.431Z,4.63
2022-11-10T08:30:45.956Z,3.92
2022-11-10T08:35:49.521Z,3.55
2022-11-10T08:40:51.026Z,3.63
2022-11-10T08:45:55.100Z,3.10
2022-11-10T08:50:59.686Z,3.25
2022-11-10T08:56:01.201Z,3.35
2022-11-10T09:01:02.818Z,2.55
2022-11-10T09:06:04.838Z,2.47
2022-11-10T09:11:06.459Z,2.85
2022-11-10T09:16:08.502Z,2.28
2022-11-10T09:21:11.986Z,2.80
2022-11-10T09:26:13.556Z,2.97
2022-11-10T09:31:15.232Z,2.25
2022-11-10T09:36:16.664Z,2.22
2022-11-10T09:41:18.190Z,2.15
2022-11-10T09:46:30.746Z,2.15
2022-11-10T09:51:38.236Z,2.13
2022-11-10T09:56:41.535Z,1.75
2022-11-10T10:01:51.576Z,1.38
2022-11-10T10:07:11.119Z,1.25
2022-11-10T10:12:46.604Z,1.60
2022-11-10T10:17:55.307Z,1.42
2022-11-10T10:23:06.503Z,1.20
2022-11-10T10:28:26.116Z,1.05
2022-11-10T10:33:28.280Z,1.45
2022-11-10T10:38:36.262Z,1.10
2022-11-10T10:43:37.982Z,1.17
2022-11-10T10:48:39.440Z,1.10
2022-11-10T10:53:47.978Z,1.77
2022-11-10T10:58:56.783Z,1.30
2022-11-10T11:03:59.886Z,1.52
2022-11-10T11:09:16.730Z,1.42
2022-11-10T11:14:18.190Z,1.35
2022-11-10T11:19:23.834Z,0.90
2022-11-10T11:24:35.788Z,1.80
2022-11-10T11:29:37.272Z,1.02
2022-11-10T11:35:16.286Z,1.17
2022-11-10T11:40:46.414Z,0.90
2022-11-10T11:46:11.587Z,1.25
2022-11-10T11:51:22.373Z,1.42
2022-11-10T11:56:31.535Z,1.42
2022-11-10T12:01:51.871Z,1.02
2022-11-10T12:07:01.603Z,1.15
2022-11-10T12:12:26.592Z,1.07
2022-11-10T12:17:45.246Z,0.80
2022-11-10T12:22:59.596Z,1.00
2022-11-10T12:28:16.766Z,1.05
2022-11-10T12:33:35.632Z,0.93
2022-11-10T12:39:04.866Z,1.17
2022-11-10T12:44:17.700Z,1.23
2022-11-10T12:49:27.755Z,0.80
2022-11-10T12:54:29.769Z,1.85
2022-11-10T12:59:40.852Z,0.93
2022-11-10T13:04:42.461Z,0.95
2022-11-10T13:09:44.660Z,0.90
2022-11-10T13:14:47.298Z,1.08
2022-11-10T13:19:50.340Z,0.82
2022-11-10T13:24:51.853Z,0.95
2022-11-10T13:29:58.083Z,0.80
2022-11-10T13:35:37.965Z,0.80
2022-11-10T13:40:39.799Z,0.70
2022-11-10T13:45:45.868Z,1.08
2022-11-10T13:51:16.340Z,0.75
2022-11-10T13:56:48.770Z,0.77
2022-11-10T14:01:50.514Z,0.93
2022-11-10T14:06:55.023Z,0.90
2022-11-10T14:12:13.111Z,0.80
2022-11-10T14:17:30.807Z,1.50
2022-11-10T14:22:40.709Z,0.80
2022-11-10T14:27:44.603Z,0.67
2022-11-10T14:32:55.071Z,0.60
2022-11-10T14:43:05.311Z,0.93
2022-11-10T14:48:18.214Z,0.85
2022-11-10T14:53:29.380Z,0.82
2022-11-10T14:58:37.396Z,1.00
2022-11-10T15:03:41.878Z,0.80
2022-11-10T15:08:43.413Z,1.38
2022-11-10T15:13:45.267Z,1.25
2022-11-10T15:18:49.039Z,1.08
2022-11-10T15:23:55.969Z,0.95
2022-11-10T15:28:57.653Z,1.10
2022-11-10T15:34:02.637Z,1.17
2022-11-10T15:39:15.814Z,1.42
2022-11-10T15:44:22.239Z,0.95
2022-11-10T15:49:27.230Z,1.40
2022-11-10T15:54:32.726Z,1.90
2022-11-10T15:59:34.196Z,4.47
2022-11-10T16:04:35.657Z,2.40
2022-11-10T16:09:37.147Z,1.38
2022-11-10T16:14:38.666Z,2.00
2022-11-10T16:19:40.107Z,1.65
2022-11-10T16:24:41.674Z,1.95
2022-11-10T16:29:43.372Z,2.40
2022-11-10T16:34:44.837Z,2.13
2022-11-10T16:39:46.313Z,2.80
2022-11-10T16:44:47.850Z,6.65
2022-11-10T16:49:50.974Z,7.63
2022-11-10T16:54:52.492Z,4.53
2022-11-10T16:59:53.923Z,8.32
2022-11-10T17:04:55.814Z,4.93
2022-11-10T17:09:58.937Z,5.53
2022-11-10T17:15:00.437Z,4.50
2022-11-10T17:20:02.050Z,4.30
2022-11-10T17:25:04.389Z,4.25
2022-11-10T17:30:06.352Z,4.25
2022-11-10T17:35:08.330Z,4.10
2022-11-10T17:40:19.853Z,4.68
2022-11-10T17:45:25.707Z,3.92
2022-11-10T17:50:27.283Z,5.03
2022-11-10T17:55:33.998Z,5.93
2022-11-10T18:00:36.037Z,3.50
2022-11-10T18:05:38.184Z,2.15
2022-11-10T18:10:50.868Z,2.10
2022-11-10T18:15:54.385Z,2.22
2022-11-10T18:20:57.151Z,2.47
2022-11-10T18:26:07.138Z,3.10
2022-11-10T18:31:11.281Z,3.07
2022-11-10T18:36:12.941Z,4.75
2022-11-10T18:41:32.939Z,7.07
2022-11-10T18:46:34.397Z,5.50
2022-11-10T18:51:36.050Z,4.43
2022-11-10T18:56:37.693Z,3.78
2022-11-10T19:01:39.260Z,4.15
2022-11-10T19:06:41.369Z,5.78
2022-11-10T19:11:43.819Z,4.82
2022-11-10T19:16:45.321Z,4.25
2022-11-10T19:21:46.794Z,4.60
2022-11-10T19:26:51.666Z,3.25
2022-11-10T19:31:53.207Z,3.70
2022-11-10T19:36:54.688Z,3.17
2022-11-10T19:41:56.146Z,4.40
2022-11-10T19:46:57.571Z,4.63
2022-11-10T19:51:59.090Z,5.00
2022-11-10T19:57:01.212Z,4.80
2022-11-10T20:02:03.767Z,5.57
2022-11-10T20:07:24.051Z,7.18
2022-11-10T20:12:25.578Z,9.10
2022-11-10T20:17:27.090Z,5.88
2022-11-10T20:22:28.549Z,5.78
2022-11-10T20:27:30.167Z,4.60
2022-11-10T20:32:31.633Z,4.05
2022-11-10T20:37:33.591Z,3.60
2022-11-10T20:42:40.207Z,4.18
2022-11-10T20:47:44.043Z,5.55
2022-11-10T20:52:45.496Z,5.97
2022-11-10T20:57:47.018Z,9.00
2022-11-10T21:02:48.547Z,6.80
2022-11-10T21:07:50.036Z,4.13
2022-11-10T21:12:51.692Z,2.83
2022-11-10T21:17:53.163Z,2.50
2022-11-10T21:23:02.018Z,2.20
2022-11-10T21:28:05.168Z,2.60
2022-11-10T21:33:07.075Z,2.55
2022-11-10T21:38:12.208Z,2.35
2022-11-10T21:43:13.715Z,5.03
2022-11-10T21:48:15.190Z,4.72
2022-11-10T21:53:16.658Z,5.22
2022-11-10T21:58:18.127Z,4.10
2022-11-10T22:03:19.732Z,3.95
2022-11-10T22:08:22.096Z,3.83
2022-11-10T22:13:41.918Z,4.68
2022-11-10T22:18:45.123Z,3.83
2022-11-10T22:24:05.279Z,3.22
2022-11-10T22:29:06.726Z,2.72
2022-11-10T22:34:08.176Z,2.45
2022-11-10T22:39:10.225Z,2.30
2022-11-10T22:44:13.806Z,2.15
2022-11-10T22:49:16.392Z,3.47
2022-11-10T22:54:20.311Z,2.83
2022-11-10T22:59:22.690Z,3.00
2022-11-10T23:04:24.192Z,3.80
2022-11-10T23:09:25.745Z,3.72
2022-11-10T23:14:27.172Z,3.05
2022-11-10T23:19:28.649Z,3.20
2022-11-10T23:24:30.428Z,2.50
2022-11-10T23:29:31.881Z,2.72
2022-11-10T23:34:33.436Z,3.47
2022-11-10T23:39:34.946Z,3.45
2022-11-10T23:44:36.443Z,2.83
2022-11-10T23:49:38.014Z,2.13
2022-11-10T23:54:39.504Z,2.58
2022-11-10T23:59:40.988Z,2.80
